Time;durP1;ratioP1;P1;durP2;ratioP2;P2;SDS_P1;SDS_P2;PMS_P1;PMS_P2;Temp;Humidity;BMP_temperature;BMP_pressure;BME280_temperature;BME280_humidity;BME280_pressure;Samples;Min_cycle;Max_cycle;Signal;HPM_P1;HPM_P2
2022/12/23 00:01:03;;;;;;;11.87;2.77;;;30.50;99.90;;;;;;4943434;29;20564;-71
2022/12/23 00:03:32;;;;;;;5.10;2.13;;;30.70;99.90;;;;;;4933516;29;20192;-70
2022/12/23 00:06:00;;;;;;;3.37;2.20;;;31.60;99.90;;;;;;4930927;29;20327;-73
2022/12/23 00:08:28;;;;;;;4.40;2.20;;;32.10;99.90;;;;;;4933587;29;20209;-74
2022/12/23 00:10:57;;;;;;;3.67;1.90;;;32.10;99.90;;;;;;4933334;29;20268;-74
2022/12/23 00:16:12;;;;;;;4.88;2.28;;;31.80;99.90;;;;;;4936821;29;20196;-73
2022/12/23 00:18:40;;;;;;;6.72;2.13;;;32.30;99.90;;;;;;4936793;29;20542;-72
2022/12/23 00:21:14;;;;;;;4.70;2.20;;;32.50;99.90;;;;;;4937230;29;20576;-73
2022/12/23 00:23:44;;;;;;;6.93;2.38;;;32.30;99.90;;;;;;4939927;29;20193;-73
2022/12/23 00:26:21;;;;;;;2.00;1.55;;;32.60;99.90;;;;;;4936144;29;20188;-70
2022/12/23 00:28:50;;;;;;;5.25;1.65;;;32.10;99.90;;;;;;4927808;29;20345;-74
2022/12/23 00:31:20;;;;;;;7.65;1.83;;;32.00;99.90;;;;;;4936884;29;20181;-71
2022/12/23 00:33:49;;;;;;;3.87;1.80;;;31.80;99.90;;;;;;4936722;29;20192;-71
2022/12/23 00:36:22;;;;;;;5.15;2.05;;;31.80;99.90;;;;;;4936910;29;20263;-76
2022/12/23 00:44:23;;;;;;;4.60;2.00;;;31.40;99.90;;;;;;4937305;29;20187;-74
2022/12/23 00:46:51;;;;;;;6.53;2.00;;;32.00;99.90;;;;;;4936695;29;20189;-72
2022/12/23 00:52:09;;;;;;;2.30;1.50;;;32.30;99.90;;;;;;4949440;29;20198;-74
2022/12/23 00:54:36;;;;;;;3.33;1.60;;;32.40;99.90;;;;;;4955972;29;20227;-76
2022/12/23 00:57:05;;;;;;;3.20;1.63;;;32.30;99.90;;;;;;4955421;29;20215;-75
2022/12/23 00:59:33;;;;;;;3.72;1.45;;;32.10;99.90;;;;;;4955821;29;20262;-73
2022/12/23 01:07:33;;;;;;;2.28;1.42;;;32.20;99.90;;;;;;4955705;29;20660;-73
2022/12/23 01:10:01;;;;;;;3.45;1.60;;;32.50;99.90;;;;;;4954346;29;20213;-72
2022/12/23 01:12:29;;;;;;;2.53;1.48;;;32.90;99.90;;;;;;4935929;29;20173;-74
2022/12/23 01:14:56;;;;;;;1.85;1.35;;;33.20;99.90;;;;;;4936133;29;20639;-74
2022/12/23 01:17:24;;;;;;;4.38;1.27;;;33.40;99.90;;;;;;4935588;29;20189;-74
2022/12/23 01:19:52;;;;;;;5.38;1.70;;;33.50;99.90;;;;;;4935623;29;20177;-73
2022/12/23 01:22:20;;;;;;;5.18;1.90;;;33.30;99.90;;;;;;4934916;29;20196;-71
2022/12/23 01:24:48;;;;;;;2.75;1.60;;;33.20;99.90;;;;;;4935317;29;20621;-73
2022/12/23 01:27:15;;;;;;;3.35;1.52;;;32.90;99.90;;;;;;4935183;29;20192;-74
2022/12/23 01:29:43;;;;;;;3.28;1.35;;;33.20;99.90;;;;;;4935819;29;20220;-75
2022/12/23 01:32:11;;;;;;;2.15;1.52;;;33.50;99.90;;;;;;4935279;29;20185;-72
2022/12/23 01:34:39;;;;;;;2.80;1.67;;;33.70;99.90;;;;;;4935400;29;20677;-72
2022/12/23 01:37:06;;;;;;;5.85;1.60;;;33.60;99.90;;;;;;4935446;29;20193;-76
2022/12/23 01:39:34;;;;;;;4.32;1.60;;;33.30;99.90;;;;;;4936071;29;20192;-74
2022/12/23 01:45:00;;;;;;;3.25;1.60;;;33.70;99.90;;;;;;4935884;29;20192;-75
2022/12/23 01:47:30;;;;;;;3.92;1.83;;;33.00;99.90;;;;;;4934959;29;20189;-75
2022/12/23 01:50:26;;;;;;;2.78;1.70;;;33.30;99.90;;;;;;4935616;29;20212;-75
2022/12/23 01:53:13;;;;;;;3.42;1.73;;;34.10;99.90;;;;;;4912986;29;20283;-73
2022/12/23 01:55:49;;;;;;;5.53;1.60;;;33.90;98.40;;;;;;4934953;29;20185;-76
2022/12/23 01:58:25;;;;;;;3.33;1.30;;;34.10;99.90;;;;;;4939673;29;20569;-76
2022/12/23 02:03:42;;;;;;;3.75;1.33;;;34.30;97.20;;;;;;4954043;29;20226;-74
2022/12/23 02:09:21;;;;;;;3.65;1.55;;;33.40;97.60;;;;;;4935184;29;20263;-74
2022/12/23 02:11:58;;;;;;;2.28;1.60;;;33.60;97.60;;;;;;4934836;29;20185;-75
2022/12/23 02:18:16;;;;;;;4.88;1.85;;;34.00;99.20;;;;;;4921998;29;20204;-72
2022/12/23 02:21:05;;;;;;;7.15;1.88;;;33.60;98.10;;;;;;4933830;29;20191;-72
2022/12/23 02:23:53;;;;;;;6.63;1.70;;;33.80;99.50;;;;;;4934066;29;20181;-72
2022/12/23 02:26:36;;;;;;;3.45;1.60;;;33.50;97.40;;;;;;4934338;29;20185;-73
2022/12/23 02:29:32;;;;;;;2.17;1.23;;;32.80;96.80;;;;;;4920587;29;20227;-70
2022/12/23 02:32:15;;;;;;;3.08;1.23;;;33.00;92.40;;;;;;4913722;29;20196;-71
2022/12/23 02:34:56;;;;;;;2.63;1.27;;;33.40;91.30;;;;;;4934438;29;20761;-68
2022/12/23 02:37:42;;;;;;;8.02;1.73;;;33.90;93.60;;;;;;4934257;29;20192;-73
2022/12/23 02:40:26;;;;;;;5.07;1.75;;;34.20;92.10;;;;;;4934573;29;20177;-75
2022/12/23 02:43:15;;;;;;;3.85;1.77;;;34.10;90.50;;;;;;4934816;29;20664;-69
2022/12/23 02:46:04;;;;;;;2.97;1.40;;;34.00;88.90;;;;;;4934549;29;20540;-71
2022/12/23 02:48:34;;;;;;;2.05;1.30;;;33.40;88.60;;;;;;4921761;29;20255;-75
2022/12/23 02:51:03;;;;;;;4.90;1.77;;;32.80;91.50;;;;;;4934771;29;20574;-72
2022/12/23 02:53:56;;;;;;;3.88;1.40;;;32.70;93.90;;;;;;4934171;29;20184;-73
2022/12/23 02:56:26;;;;;;;7.63;1.45;;;32.70;91.30;;;;;;4928297;29;20631;-73
2022/12/23 02:59:12;;;;;;;3.92;1.45;;;32.30;91.60;;;;;;4944098;29;20250;-74
2022/12/23 03:01:40;;;;;;;1.73;1.23;;;32.40;93.80;;;;;;4945957;29;20233;-75
2022/12/23 03:04:09;;;;;;;3.92;1.73;;;33.00;93.00;;;;;;4934499;29;20203;-72
2022/12/23 03:06:53;;;;;;;3.45;1.40;;;33.40;85.50;;;;;;4934514;29;20191;-72
2022/12/23 03:09:44;;;;;;;2.20;1.15;;;33.60;82.80;;;;;;4934137;29;20210;-71
2022/12/23 03:13:07;;;;;;;4.90;1.60;;;33.70;83.80;;;;;;4934064;29;20184;-73
2022/12/23 03:16:10;;;;;;;4.78;1.60;;;33.60;77.40;;;;;;4893695;29;20228;-72
2022/12/23 03:19:10;;;;;;;4.68;1.33;;;33.50;72.20;;;;;;4923523;29;20184;-73
2022/12/23 03:22:01;;;;;;;5.30;1.70;;;33.10;74.10;;;;;;4934053;29;20669;-71
2022/12/23 03:24:46;;;;;;;7.45;1.52;;;32.60;74.10;;;;;;4932033;29;20196;-74
2022/12/23 03:27:44;;;;;;;2.63;1.05;;;33.10;76.00;;;;;;4928956;29;20220;-72
2022/12/23 03:30:19;;;;;;;1.90;1.02;;;33.80;71.50;;;;;;4934458;29;20275;-71
2022/12/23 03:32:54;;;;;;;3.85;1.58;;;34.40;80.50;;;;;;4933562;29;20188;-74
2022/12/23 03:35:27;;;;;;;5.70;2.10;;;34.80;92.30;;;;;;4934422;29;20192;-74
2022/12/23 03:37:58;;;;;;;4.78;2.00;;;34.90;95.30;;;;;;4929324;29;20264;-74
2022/12/23 03:40:40;;;;;;;9.63;2.03;;;34.40;98.30;;;;;;4916234;29;20343;-72
2022/12/23 03:43:41;;;;;;;6.63;2.47;;;33.60;99.80;;;;;;4934181;29;20189;-73
2022/12/23 03:46:29;;;;;;;6.85;2.42;;;33.00;99.90;;;;;;4884697;29;20224;-74
2022/12/23 03:49:06;;;;;;;6.05;2.65;;;31.90;99.90;;;;;;4929137;29;20200;-73
2022/12/23 03:51:41;;;;;;;7.57;2.20;;;31.10;99.90;;;;;;4937531;29;20183;-74
2022/12/23 03:54:16;;;;;;;5.40;2.80;;;30.50;99.90;;;;;;4937393;29;20169;-75
2022/12/23 03:56:53;;;;;;;4.97;2.47;;;29.80;99.90;;;;;;4937463;29;20211;-69
2022/12/23 03:59:23;;;;;;;7.23;2.77;;;29.40;99.90;;;;;;4937894;29;20269;-73
2022/12/23 04:02:14;;;;;;;5.73;2.40;;;29.10;99.90;;;;;;4937458;29;20180;-75
2022/12/23 04:04:42;;;;;;;6.40;2.90;;;29.00;99.90;;;;;;4930591;29;20197;-75
2022/12/23 04:07:30;;;;;;;9.10;2.83;;;29.10;99.90;;;;;;4937700;29;20183;-74
2022/12/23 04:09:59;;;;;;;8.77;2.57;;;29.10;99.90;;;;;;4938020;29;20219;-74
2022/12/23 04:12:29;;;;;;;6.50;3.00;;;29.30;99.90;;;;;;4938771;29;20283;-75
2022/12/23 04:14:57;;;;;;;11.33;2.83;;;29.10;99.90;;;;;;4937631;29;20183;-75
2022/12/23 04:17:24;;;;;;;5.43;2.93;;;28.90;99.90;;;;;;4917842;29;20265;-73
2022/12/23 04:19:53;;;;;;;6.93;3.17;;;29.50;99.90;;;;;;4924624;29;20176;-74
2022/12/23 04:22:21;;;;;;;12.33;3.10;;;30.20;99.90;;;;;;4937405;29;20185;-74
2022/12/23 04:24:48;;;;;;;6.93;2.47;;;31.10;99.90;;;;;;4936305;29;20176;-75
2022/12/23 04:27:17;;;;;;;4.80;3.07;;;31.20;99.90;;;;;;4937070;29;20180;-73
2022/12/23 04:36:29;;;;;;;6.70;2.50;;;31.60;99.90;;;;;;4936482;29;20211;-74
2022/12/23 04:38:57;;;;;;;3.33;2.47;;;31.50;99.90;;;;;;4936226;29;20184;-75
2022/12/23 04:41:24;;;;;;;5.82;2.88;;;31.60;99.90;;;;;;4936324;29;20193;-72
2022/12/23 04:43:52;;;;;;;4.10;2.30;;;31.50;99.90;;;;;;4936947;29;20189;-72
2022/12/23 04:46:20;;;;;;;6.27;2.20;;;31.50;99.90;;;;;;4936576;29;20181;-75
2022/12/23 04:48:48;;;;;;;7.20;2.37;;;31.50;99.90;;;;;;4938133;29;20192;-72
2022/12/23 04:51:16;;;;;;;7.70;2.60;;;31.30;99.90;;;;;;4936268;29;20201;-75
2022/12/23 04:53:43;;;;;;;10.05;2.70;;;31.30;99.90;;;;;;4935365;29;20196;-78
2022/12/23 04:56:12;;;;;;;4.45;2.60;;;31.70;99.90;;;;;;4943746;29;20188;-78
2022/12/23 04:58:40;;;;;;;3.75;2.30;;;31.80;99.90;;;;;;4954836;28;20231;-75
2022/12/23 05:01:10;;;;;;;6.17;2.53;;;31.70;99.90;;;;;;4940190;29;20192;-72
2022/12/23 05:03:39;;;;;;;5.47;2.35;;;31.70;99.90;;;;;;4919031;29;20305;-71
2022/12/23 05:06:11;;;;;;;5.13;2.20;;;31.60;99.90;;;;;;4935966;29;20651;-73
2022/12/23 05:08:39;;;;;;;3.45;1.90;;;31.00;99.90;;;;;;4919070;29;20682;-71
2022/12/23 05:11:07;;;;;;;2.35;1.95;;;30.70;99.90;;;;;;4936015;29;20237;-74
2022/12/23 05:13:35;;;;;;;4.00;2.10;;;30.00;99.90;;;;;;4936213;29;20181;-72
2022/12/23 05:16:02;;;;;;;6.10;2.13;;;29.80;99.90;;;;;;4935428;29;20232;-71
2022/12/23 05:18:30;;;;;;;9.20;2.30;;;29.50;99.90;;;;;;4917142;29;20192;-72
2022/12/23 05:20:58;;;;;;;5.60;2.10;;;29.30;99.90;;;;;;4917198;29;20662;-73
2022/12/23 05:23:26;;;;;;;6.10;2.10;;;29.30;99.90;;;;;;4916563;29;20173;-72
2022/12/23 05:25:54;;;;;;;2.93;1.60;;;29.40;99.90;;;;;;4917305;29;20224;-72
2022/12/23 05:28:23;;;;;;;3.07;1.67;;;29.30;99.90;;;;;;4932527;29;20219;-73
2022/12/23 05:31:00;;;;;;;2.60;2.00;;;29.30;99.90;;;;;;4935262;29;20660;-75
2022/12/23 05:33:28;;;;;;;6.83;1.47;;;29.60;99.90;;;;;;4936054;29;20185;-75
2022/12/23 05:35:56;;;;;;;3.03;1.53;;;30.30;99.90;;;;;;4935746;29;20666;-77
2022/12/23 05:38:24;;;;;;;3.30;1.83;;;30.40;99.90;;;;;;4935185;29;20196;-72
2022/12/23 05:40:52;;;;;;;4.23;1.90;;;30.60;99.90;;;;;;4935689;29;20582;-76
2022/12/23 05:43:20;;;;;;;4.20;1.60;;;31.10;99.90;;;;;;4934819;29;20192;-72
2022/12/23 05:45:48;;;;;;;2.83;1.60;;;31.10;99.90;;;;;;4935053;29;20272;-72
2022/12/23 05:48:16;;;;;;;3.33;1.50;;;30.80;99.90;;;;;;4935724;29;20181;-72
2022/12/23 05:50:44;;;;;;;4.13;1.30;;;30.80;99.90;;;;;;4934577;29;20681;-72
2022/12/23 05:53:12;;;;;;;3.65;1.67;;;30.80;99.90;;;;;;4934968;29;20307;-72
2022/12/23 05:55:40;;;;;;;4.30;1.30;;;31.20;99.90;;;;;;4934715;29;20247;-72
2022/12/23 05:58:07;;;;;;;3.07;1.30;;;30.90;99.90;;;;;;4934915;29;20220;-73
2022/12/23 06:00:39;;;;;;;5.70;1.40;;;30.20;99.90;;;;;;4934517;29;20212;-72
2022/12/23 06:03:07;;;;;;;3.50;1.23;;;30.00;99.90;;;;;;4935308;29;20639;-71
2022/12/23 06:05:38;;;;;;;2.07;1.10;;;29.70;99.90;;;;;;4942222;29;20181;-75
2022/12/23 06:08:06;;;;;;;5.00;1.40;;;30.00;99.90;;;;;;4938496;29;20192;-73
2022/12/23 06:10:34;;;;;;;2.13;1.40;;;30.30;99.90;;;;;;4934498;29;20212;-71
2022/12/23 06:13:01;;;;;;;3.77;1.40;;;30.60;99.90;;;;;;4934532;29;20256;-72
2022/12/23 06:15:29;;;;;;;3.67;1.83;;;30.50;99.90;;;;;;4935131;29;20184;-77
2022/12/23 06:17:57;;;;;;;3.60;1.40;;;30.30;99.90;;;;;;4935608;29;20181;-75
2022/12/23 06:20:25;;;;;;;3.23;1.33;;;29.80;99.90;;;;;;4935123;29;20180;-76
2022/12/23 06:22:52;;;;;;;3.27;1.90;;;29.40;99.90;;;;;;4934852;29;20295;-72
2022/12/23 06:25:20;;;;;;;5.30;1.50;;;29.30;99.90;;;;;;4935314;29;20275;-72
2022/12/23 06:27:48;;;;;;;3.27;1.70;;;29.10;99.90;;;;;;4935516;29;20180;-72
2022/12/23 06:30:16;;;;;;;4.60;1.40;;;29.00;99.90;;;;;;4934301;29;20304;-76
2022/12/23 06:32:44;;;;;;;2.60;1.23;;;28.70;99.90;;;;;;4932618;29;20223;-75
2022/12/23 06:35:12;;;;;;;5.10;1.20;;;28.50;99.90;;;;;;4934653;29;20188;-71
2022/12/23 06:37:39;;;;;;;4.33;1.83;;;28.30;99.90;;;;;;4934384;29;20184;-72
2022/12/23 06:40:08;;;;;;;3.00;1.20;;;28.30;99.90;;;;;;4934504;29;20180;-72
2022/12/23 06:42:36;;;;;;;1.60;1.37;;;28.30;99.90;;;;;;4934509;29;20172;-76
2022/12/23 06:45:04;;;;;;;4.23;1.70;;;28.30;99.90;;;;;;4934270;29;20189;-74
2022/12/23 06:47:32;;;;;;;6.60;1.40;;;28.60;99.90;;;;;;4934889;29;20185;-72
2022/12/23 06:49:59;;;;;;;8.93;1.40;;;28.90;99.90;;;;;;4933210;29;20315;-72
2022/12/23 06:52:27;;;;;;;2.83;1.70;;;29.10;99.90;;;;;;4933895;29;20195;-78
2022/12/23 06:54:55;;;;;;;2.67;1.23;;;29.50;99.90;;;;;;4934235;29;20196;-73
2022/12/23 06:57:23;;;;;;;1.93;1.10;;;29.70;99.90;;;;;;4934030;29;20701;-72
2022/12/23 06:59:51;;;;;;;4.17;1.20;;;29.80;99.90;;;;;;4934413;29;20192;-74
2022/12/23 07:02:19;;;;;;;2.60;1.10;;;29.60;99.40;;;;;;4951064;29;20552;-72
2022/12/23 07:04:46;;;;;;;3.47;1.40;;;29.30;99.90;;;;;;4953699;29;20563;-77
2022/12/23 07:07:14;;;;;;;2.07;1.30;;;29.10;99.90;;;;;;4953170;29;20176;-71
2022/12/23 07:09:41;;;;;;;3.93;1.50;;;28.70;99.90;;;;;;4953302;29;20631;-79
2022/12/23 07:12:08;;;;;;;6.23;1.30;;;28.80;99.90;;;;;;4943625;29;20195;-79
2022/12/23 07:14:36;;;;;;;2.20;1.20;;;29.10;99.90;;;;;;4934001;29;20551;-72
2022/12/23 07:17:03;;;;;;;2.13;1.03;;;29.10;99.90;;;;;;4934622;29;20988;-74
2022/12/23 07:19:30;;;;;;;1.80;1.00;;;29.00;99.90;;;;;;4934388;29;20630;-78
2022/12/23 07:21:58;;;;;;;2.70;1.47;;;28.90;99.90;;;;;;4937466;29;20181;-74
2022/12/23 07:24:25;;;;;;;2.03;0.90;;;28.70;99.90;;;;;;4937777;29;20176;-72
2022/12/23 07:26:54;;;;;;;7.27;1.50;;;28.40;99.90;;;;;;4937862;29;20218;-70
2022/12/23 07:29:22;;;;;;;2.97;1.30;;;28.10;99.90;;;;;;4937755;29;20244;-71
2022/12/23 07:31:49;;;;;;;3.03;1.47;;;27.90;99.90;;;;;;4938082;29;20204;-71
2022/12/23 07:34:16;;;;;;;3.60;1.40;;;27.70;99.90;;;;;;4938212;29;20180;-70
2022/12/23 07:36:44;;;;;;;3.20;1.03;;;27.50;99.90;;;;;;4937333;29;20219;-71
2022/12/23 07:39:11;;;;;;;5.37;1.30;;;27.40;99.90;;;;;;4936787;29;20193;-71
2022/12/23 07:41:39;;;;;;;3.00;1.23;;;27.20;99.90;;;;;;4937606;29;20291;-72
2022/12/23 07:44:07;;;;;;;3.87;1.27;;;27.10;99.90;;;;;;4937158;29;20651;-72
2022/12/23 07:46:35;;;;;;;2.20;1.10;;;27.00;99.90;;;;;;4937497;29;20199;-72
2022/12/23 07:49:02;;;;;;;3.50;1.10;;;27.00;99.90;;;;;;4937454;29;20345;-75
2022/12/23 07:51:30;;;;;;;4.20;1.40;;;27.10;99.90;;;;;;4937200;29;20189;-76
2022/12/23 07:53:58;;;;;;;4.53;1.87;;;27.20;99.90;;;;;;4920578;29;20252;-72
2022/12/23 07:56:25;;;;;;;3.50;1.40;;;27.10;99.90;;;;;;4932922;29;20189;-76
2022/12/23 07:58:53;;;;;;;4.43;1.10;;;27.20;99.90;;;;;;4938826;29;20243;-71
2022/12/23 08:01:22;;;;;;;1.77;1.20;;;27.30;99.90;;;;;;4938345;29;20216;-72
2022/12/23 08:03:51;;;;;;;3.10;1.23;;;27.40;99.90;;;;;;4938740;29;20220;-75
2022/12/23 08:06:18;;;;;;;4.47;1.10;;;27.40;99.90;;;;;;4937862;29;20259;-78
2022/12/23 08:08:46;;;;;;;2.23;1.23;;;27.40;99.90;;;;;;4938468;29;20670;-71
2022/12/23 08:11:15;;;;;;;5.43;1.27;;;27.30;99.90;;;;;;4938227;29;20188;-71
2022/12/23 08:13:44;;;;;;;1.87;1.17;;;27.20;99.90;;;;;;4938338;29;20188;-73
2022/12/23 08:16:12;;;;;;;3.57;1.63;;;27.20;99.90;;;;;;4938140;29;20695;-72
2022/12/23 08:18:40;;;;;;;3.47;1.23;;;27.20;99.90;;;;;;4938725;29;20180;-71
2022/12/23 08:21:15;;;;;;;2.33;1.20;;;27.20;99.90;;;;;;4937081;29;20236;-71
2022/12/23 08:23:43;;;;;;;2.30;1.07;;;27.10;99.90;;;;;;4938283;29;20192;-74
2022/12/23 08:26:16;;;;;;;4.17;1.30;;;27.00;99.90;;;;;;4938083;29;20189;-78
2022/12/23 08:28:44;;;;;;;4.13;1.33;;;26.80;99.90;;;;;;4938091;29;20181;-70
2022/12/23 08:31:34;;;;;;;4.30;1.20;;;26.60;99.90;;;;;;4937795;29;20197;-70
2022/12/23 08:34:02;;;;;;;3.00;1.23;;;26.50;99.90;;;;;;4937862;29;20193;-72
2022/12/23 08:36:34;;;;;;;1.83;1.37;;;26.30;99.90;;;;;;4938012;29;20189;-70
2022/12/23 08:39:06;;;;;;;3.93;1.50;;;26.20;99.90;;;;;;4938240;29;20275;-71
2022/12/23 08:41:37;;;;;;;5.13;1.73;;;26.00;99.90;;;;;;4937984;29;20193;-72
2022/12/23 08:44:05;;;;;;;2.90;1.47;;;25.90;99.90;;;;;;4937690;29;20594;-70
2022/12/23 08:46:33;;;;;;;1.70;1.17;;;25.70;99.90;;;;;;4936394;29;20574;-70
2022/12/23 08:49:00;;;;;;;4.50;1.50;;;25.70;99.90;;;;;;4937597;29;20208;-71
2022/12/23 08:51:28;;;;;;;1.80;1.63;;;25.40;99.90;;;;;;4936586;29;20192;-76
2022/12/23 08:53:57;;;;;;;3.53;1.80;;;25.40;99.90;;;;;;4937600;29;20196;-71
2022/12/23 08:56:28;;;;;;;3.87;1.80;;;25.30;99.90;;;;;;4937528;29;20192;-73
2022/12/23 08:58:56;;;;;;;5.27;2.03;;;25.20;99.90;;;;;;4917245;29;20297;-80
2022/12/23 09:01:29;;;;;;;10.53;2.10;;;25.20;99.90;;;;;;4899780;29;20194;-74
2022/12/23 09:03:57;;;;;;;6.17;1.93;;;25.00;99.90;;;;;;4898217;29;20217;-71
2022/12/23 09:06:27;;;;;;;4.33;2.10;;;25.00;99.90;;;;;;4899561;29;20182;-72
2022/12/23 09:08:55;;;;;;;4.50;1.60;;;24.90;99.90;;;;;;4899648;29;20366;-72
2022/12/23 09:11:25;;;;;;;5.13;1.70;;;24.80;99.90;;;;;;4899829;29;20667;-73
2022/12/23 09:13:52;;;;;;;3.37;1.60;;;24.80;99.90;;;;;;4899789;29;20773;-79
2022/12/23 09:16:20;;;;;;;4.00;1.93;;;24.70;99.90;;;;;;4899345;29;20185;-72
2022/12/23 09:18:47;;;;;;;4.13;1.67;;;24.60;99.90;;;;;;4899622;29;20558;-72
2022/12/23 09:21:21;;;;;;;5.53;1.80;;;24.60;99.90;;;;;;4899666;29;20182;-79
2022/12/23 09:23:49;;;;;;;4.67;1.57;;;24.60;99.90;;;;;;4899404;29;20178;-76
2022/12/23 09:26:24;;;;;;;4.10;1.70;;;24.60;99.90;;;;;;4917670;29;20247;-72
2022/12/23 09:28:52;;;;;;;4.00;1.70;;;24.50;99.90;;;;;;4899432;29;20220;-77
2022/12/23 09:31:20;;;;;;;6.07;1.60;;;24.40;99.90;;;;;;4899441;29;20189;-71
2022/12/23 09:33:50;;;;;;;4.53;1.57;;;24.40;99.90;;;;;;4899813;29;20190;-79
2022/12/23 09:36:18;;;;;;;4.67;1.47;;;24.40;99.90;;;;;;4898697;29;20531;-71
2022/12/23 09:38:45;;;;;;;3.77;1.53;;;24.20;99.90;;;;;;4894861;29;20190;-71
2022/12/23 09:41:27;;;;;;;4.07;1.63;;;24.20;99.90;;;;;;4889743;29;20245;-70
2022/12/23 09:44:32;;;;;;;2.90;1.30;;;24.20;99.90;;;;;;4898120;29;20562;-71
2022/12/23 09:47:09;;;;;;;3.10;1.50;;;24.10;99.90;;;;;;4898126;29;20543;-70
2022/12/23 09:49:44;;;;;;;2.93;1.43;;;24.10;99.90;;;;;;4898949;29;20206;-71
2022/12/23 09:52:18;;;;;;;2.93;1.43;;;24.10;99.90;;;;;;4881973;29;20669;-70
2022/12/23 09:54:51;;;;;;;4.50;1.67;;;24.00;99.90;;;;;;4898515;29;20233;-72
2022/12/23 09:57:41;;;;;;;6.13;1.40;;;23.90;99.90;;;;;;4901877;29;20224;-75
2022/12/23 10:00:16;;;;;;;2.53;1.50;;;23.90;99.90;;;;;;4918711;29;20196;-70
2022/12/23 10:03:22;;;;;;;2.90;1.37;;;23.80;99.90;;;;;;4917711;29;20188;-70
2022/12/23 10:06:29;;;;;;;3.87;1.70;;;23.80;99.90;;;;;;5132109;27;20997;-73
2022/12/23 10:09:03;;;;;;;4.77;1.70;;;23.80;99.90;;;;;;5090823;28;20183;-80
2022/12/23 10:11:39;;;;;;;4.43;1.90;;;23.70;99.90;;;;;;5089439;28;20190;-69
2022/12/23 10:14:31;;;;;;;4.60;1.87;;;23.60;99.90;;;;;;5090690;28;20216;-70
2022/12/23 10:17:13;;;;;;;4.67;2.10;;;23.50;99.90;;;;;;5095377;28;20336;-74
2022/12/23 10:19:46;;;;;;;3.20;1.77;;;23.30;99.90;;;;;;5111025;28;20271;-72
2022/12/23 10:22:37;;;;;;;3.93;2.07;;;23.30;99.90;;;;;;5110940;28;20202;-70
2022/12/23 10:25:24;;;;;;;4.33;1.90;;;23.20;99.90;;;;;;5110832;28;20218;-69
2022/12/23 10:27:51;;;;;;;6.13;2.10;;;23.20;99.90;;;;;;5098330;28;20189;-70
2022/12/23 10:30:22;;;;;;;6.80;2.50;;;23.10;99.90;;;;;;5093501;28;20182;-81
2022/12/23 10:32:50;;;;;;;4.33;1.77;;;23.10;99.90;;;;;;5110614;28;20175;-71
2022/12/23 10:35:38;;;;;;;3.37;2.00;;;23.00;99.90;;;;;;5110300;28;20268;-70
2022/12/23 10:38:32;;;;;;;4.10;2.30;;;22.90;99.90;;;;;;5096313;28;20263;-69
2022/12/23 10:41:23;;;;;;;5.20;2.43;;;22.80;99.90;;;;;;5090575;28;20232;-78
2022/12/23 10:43:51;;;;;;;7.63;2.50;;;22.70;99.90;;;;;;5090409;28;20684;-71
2022/12/23 10:46:43;;;;;;;6.60;3.03;;;22.70;99.90;;;;;;5091258;28;20172;-70
2022/12/23 10:49:35;;;;;;;4.10;2.10;;;22.60;99.90;;;;;;5109114;28;20636;-70
2022/12/23 10:52:20;;;;;;;4.97;2.43;;;22.50;99.90;;;;;;5110540;28;20178;-71
2022/12/23 10:54:48;;;;;;;4.87;2.43;;;22.50;99.90;;;;;;5110121;28;20166;-82
2022/12/23 10:57:19;;;;;;;5.70;2.80;;;22.40;99.90;;;;;;5100783;28;20190;-70
2022/12/23 10:59:47;;;;;;;4.50;2.07;;;22.40;99.90;;;;;;5089702;28;20186;-81
2022/12/23 11:02:15;;;;;;;8.30;2.73;;;22.30;99.90;;;;;;5088529;28;20209;-83
2022/12/23 11:04:46;;;;;;;6.97;2.93;;;22.20;99.90;;;;;;5089442;28;20233;-71
2022/12/23 11:07:22;;;;;;;5.20;2.60;;;22.10;99.90;;;;;;5100338;28;20237;-70
2022/12/23 11:09:58;;;;;;;6.60;2.83;;;22.10;99.90;;;;;;5110075;28;20175;-79
2022/12/23 11:12:39;;;;;;;5.23;2.53;;;22.00;99.90;;;;;;5108695;28;20290;-70
2022/12/23 11:15:27;;;;;;;4.17;2.57;;;21.90;99.90;;;;;;5108727;28;20243;-71
2022/12/23 11:18:07;;;;;;;4.40;2.47;;;21.90;99.90;;;;;;5079107;28;20615;-70
2022/12/23 11:20:36;;;;;;;6.67;2.07;;;21.90;99.90;;;;;;5076038;28;20586;-82
2022/12/23 11:23:06;;;;;;;5.40;2.87;;;21.90;99.90;;;;;;5075953;28;20636;-82
2022/12/23 11:25:42;;;;;;;6.07;3.27;;;21.90;99.90;;;;;;5095831;28;20211;-70
2022/12/23 11:28:21;;;;;;;5.70;2.77;;;21.90;99.90;;;;;;5095748;28;20175;-71
2022/12/23 11:30:56;;;;;;;5.43;2.40;;;21.80;99.90;;;;;;5095931;28;20584;-68
2022/12/23 11:33:33;;;;;;;6.70;3.07;;;21.80;99.90;;;;;;5076852;28;20546;-69
2022/12/23 11:36:12;;;;;;;4.10;2.43;;;21.70;99.90;;;;;;5075630;28;20656;-81
2022/12/23 11:39:12;;;;;;;5.10;2.80;;;21.70;99.90;;;;;;5077693;28;20510;-83
2022/12/23 11:41:44;;;;;;;5.50;2.90;;;21.70;99.90;;;;;;5065395;28;20283;-82
2022/12/23 11:44:31;;;;;;;5.37;3.00;;;21.60;99.90;;;;;;5101287;28;20203;-73
2022/12/23 11:47:24;;;;;;;7.30;3.23;;;21.50;99.90;;;;;;5093595;28;20657;-69
2022/12/23 11:49:53;;;;;;;5.73;2.83;;;21.40;99.90;;;;;;5078950;28;20188;-70
2022/12/23 11:52:27;;;;;;;4.43;3.03;;;21.30;99.90;;;;;;5076290;28;20667;-79
2022/12/23 11:54:58;;;;;;;7.17;3.33;;;21.30;99.90;;;;;;5075982;28;20270;-74
2022/12/23 11:57:47;;;;;;;5.37;3.03;;;21.30;99.90;;;;;;5082777;28;20184;-70
2022/12/23 12:00:21;;;;;;;3.73;2.80;;;21.20;99.90;;;;;;5075970;28;20179;-71
2022/12/23 12:02:54;;;;;;;4.33;3.10;;;21.10;99.90;;;;;;5075498;28;20190;-70
2022/12/23 12:05:47;;;;;;;5.43;3.87;;;21.00;99.90;;;;;;5075173;28;20238;-72
2022/12/23 12:08:20;;;;;;;6.10;3.63;;;20.90;99.90;;;;;;5092437;28;20232;-70
2022/12/23 12:10:53;;;;;;;7.90;4.00;;;20.90;99.90;;;;;;5085564;28;20187;-70
2022/12/23 12:13:24;;;;;;;8.40;3.70;;;20.90;99.90;;;;;;5075201;28;20266;-81
2022/12/23 12:16:20;;;;;;;6.17;3.10;;;20.90;99.90;;;;;;5074975;28;20175;-70
2022/12/23 12:18:50;;;;;;;5.13;3.17;;;21.00;99.90;;;;;;5073702;28;20645;-70
2022/12/23 12:21:24;;;;;;;7.10;3.20;;;21.00;99.90;;;;;;5074835;28;20199;-70
2022/12/23 12:24:21;;;;;;;6.10;3.50;;;20.90;99.90;;;;;;5076727;28;20182;-80
2022/12/23 12:26:53;;;;;;;5.17;3.67;;;20.90;99.90;;;;;;5078925;28;20202;-78
2022/12/23 12:29:27;;;;;;;5.27;3.23;;;20.90;99.90;;;;;;5074232;28;20176;-74
2022/12/23 12:32:01;;;;;;;4.70;2.90;;;20.90;99.90;;;;;;5074723;28;20537;-76
2022/12/23 12:34:31;;;;;;;3.97;3.03;;;20.90;99.90;;;;;;5074447;28;20215;-81
2022/12/23 12:37:29;;;;;;;6.77;3.20;;;21.00;99.90;;;;;;5084396;28;20205;-69
2022/12/23 12:40:09;;;;;;;5.73;3.07;;;21.10;99.90;;;;;;5094461;28;20183;-76
2022/12/23 12:42:49;;;;;;;4.10;2.80;;;21.00;99.90;;;;;;5093310;28;20649;-78
2022/12/23 12:45:24;;;;;;;7.97;2.97;;;21.00;99.90;;;;;;5091556;28;20203;-70
2022/12/23 12:48:22;;;;;;;5.60;3.00;;;20.90;99.90;;;;;;5085353;28;20550;-70
2022/12/23 12:51:42;;;;;;;6.50;3.73;;;20.80;99.90;;;;;;5094373;28;20191;-72
2022/12/23 12:54:27;;;;;;;4.23;2.87;;;20.70;99.90;;;;;;5082717;28;20615;-81
2022/12/23 12:56:57;;;;;;;6.37;3.13;;;20.70;99.90;;;;;;5080432;28;20191;-69
2022/12/23 12:59:37;;;;;;;5.23;3.30;;;20.60;99.90;;;;;;5074279;28;20164;-70
2022/12/23 13:02:26;;;;;;;4.93;3.50;;;20.60;99.90;;;;;;5093500;28;20195;-70
2022/12/23 13:05:18;;;;;;;6.00;3.30;;;20.60;99.90;;;;;;5078450;28;20231;-70
2022/12/23 13:08:17;;;;;;;4.47;3.20;;;20.50;99.90;;;;;;5072546;28;20188;-77
2022/12/23 13:10:57;;;;;;;6.20;3.30;;;20.50;99.90;;;;;;5074084;28;20174;-69
2022/12/23 13:13:31;;;;;;;5.87;3.50;;;20.40;99.90;;;;;;5074327;28;20170;-69
2022/12/23 13:16:07;;;;;;;5.43;3.50;;;20.40;99.90;;;;;;5081395;28;20182;-69
2022/12/23 13:18:44;;;;;;;4.90;3.10;;;20.30;99.90;;;;;;5087706;28;20223;-77
2022/12/23 13:21:14;;;;;;;6.53;3.63;;;20.20;99.90;;;;;;5089793;28;20189;-70
2022/12/23 13:24:07;;;;;;;4.93;3.30;;;20.20;99.90;;;;;;5093974;28;20238;-70
2022/12/23 13:27:21;;;;;;;5.33;3.30;;;20.10;99.90;;;;;;5080806;28;20202;-70
2022/12/23 13:30:16;;;;;;;6.73;3.97;;;20.10;99.90;;;;;;5066729;28;20561;-76
2022/12/23 13:33:15;;;;;;;6.03;3.63;;;20.10;99.90;;;;;;5088323;28;20179;-81
2022/12/23 13:35:46;;;;;;;9.93;5.40;;;20.00;99.90;;;;;;5087969;28;20623;-70
2022/12/23 13:38:37;;;;;;;12.23;6.37;;;20.00;99.90;;;;;;5073652;28;20248;-71
2022/12/23 13:41:34;;;;;;;10.00;7.17;;;19.90;99.90;;;;;;5073574;28;20174;-70
2022/12/23 13:44:10;;;;;;;11.23;6.77;;;19.90;99.90;;;;;;5073623;28;20247;-70
2022/12/23 13:47:15;;;;;;;12.73;6.70;;;19.90;99.90;;;;;;5084209;28;20189;-70
2022/12/23 13:49:52;;;;;;;9.73;6.40;;;19.80;99.90;;;;;;5093374;28;20175;-70
2022/12/23 13:52:49;;;;;;;8.97;6.40;;;19.80;99.90;;;;;;5093095;28;20200;-78
2022/12/23 13:55:34;;;;;;;9.00;6.10;;;19.80;99.90;;;;;;5091780;28;20179;-81
2022/12/23 13:58:18;;;;;;;8.07;5.43;;;19.90;99.90;;;;;;5073297;28;20599;-77
2022/12/23 14:00:55;;;;;;;7.07;4.80;;;19.80;99.90;;;;;;5089370;28;20189;-70